Latest Weather Observations for Bankstown

IDN60801

Issued at 9:03 am EDT Friday 24 November 2017 (issued every 30 minutes, with the page automatically refreshed every 10 minutes)

About weather observations | Map of weather stations | Latest weather observations for NSW | Other Formats
Station Details ID: 066137 Name: BANKSTOWN AIRPORT AWS Lat: -33.92 Lon: 150.99 Height: 6.5 m
Data from the previous 72 hours. | See also: Recent months at Bankstown
Date/Time
EDT
Temp
°C
App
Temp
°C
Dew
Point
°C
Rel
Hum
%
Delta-T
°C
Wind Press
QNH
hPa
Press
MSL
hPa
Rain since
9am
mm
Dir  Spd
km/h
Gust
km/h
Spd
kts
Gust
kts
24/09:00am 23.4 24.3 16.0 63 4.5 NNW 6 13 3 7 1017.2 1017.2 0.0
24/08:30am 22.0 22.6 15.8 68 3.7 NW 7 9 4 5 1017.2 1017.2 0.0
24/08:00am 20.8 21.2 15.4 71 3.2 WNW 7 11 4 6 1016.9 1016.9 0.0
24/07:30am 19.5 20.8 15.2 76 2.5 WNW 2 7 1 4 1016.7 1016.7 0.0
24/07:00am 18.4 20.1 15.3 82 1.8 CALM 0 0 0 0 1016.5 1016.5 0.0
24/06:30am 16.5 18.1 15.0 91 0.9 CALM 0 0 0 0 1016.4 1016.4 0.0
24/06:00am 15.4 15.8 13.8 90 0.9 WNW 4 6 2 3 1016.1 1016.1 0.0
24/05:30am 16.4 18.1 15.1 92 0.8 CALM 0 0 0 0 1015.6 1015.6 0.0
24/05:00am 15.6 16.4 13.8 89 1.0 WNW 2 6 1 3 1015.6 1015.6 0.0
24/04:30am 16.6 16.8 14.2 86 1.4 WNW 6 7 3 4 1015.2 1015.2 0.0
24/04:00am 16.8 18.3 14.6 87 1.3 CALM 0 0 0 0 1015.1 1015.1 0.0
24/03:30am 16.8 18.4 14.8 88 1.2 CALM 0 4 0 2 1015.3 1015.3 0.0
24/03:00am 17.0 18.4 14.3 84 1.5 CALM 0 0 0 0 1015.4 1015.4 0.0
24/02:30am 17.9 19.0 13.6 76 2.4 CALM 0 0 0 0 1015.5 1015.5 0.0
24/02:00am 19.6 19.9 15.0 75 2.7 NE 7 11 4 6 1015.3 1015.3 0.0
24/01:30am 19.8 19.6 14.8 73 2.9 NE 9 13 5 7 1015.4 1015.4 0.0
24/01:00am 20.0 19.8 14.6 71 3.1 NE 9 11 5 6 1015.6 1015.6 0.0
24/12:30am 20.0 20.3 14.4 70 3.3 ENE 6 7 3 4 1016.2 1016.2 0.0
24/12:00am 20.5 21.4 13.9 66 3.8 ENE 2 7 1 4 1016.4 1016.4 0.0
 
Date/Time
EDT
Temp
°C
App
Temp
°C
Dew
Point
°C
Rel
Hum
%
Delta-T
°C
Wind Press
QNH
hPa
Press
MSL
hPa
Rain since
9am
mm
Dir  Spd
km/h
Gust
km/h
Spd
kts
Gust
kts
23/11:30pm 21.0 20.7 14.4 66 3.9 ENE 9 11 5 6 1016.7 1016.7 0.0
23/11:00pm 21.3 21.2 14.9 67 3.8 ENE 9 15 5 8 1016.9 1016.9 0.0
23/10:30pm 21.4 21.3 15.0 67 3.8 ESE 9 11 5 6 1017.1 1017.1 0.0
23/10:00pm 21.7 21.7 15.1 66 3.9 E 9 13 5 7 1017.0 1017.0 0.0
23/09:30pm 21.2 22.2 14.4 65 4.0 ENE 2 7 1 4 1016.9 1016.9 0.0
23/09:00pm 21.6 21.9 14.5 64 4.2 NE 6 11 3 6 1016.3 1016.3 0.0
23/08:30pm 22.0 21.3 14.4 62 4.5 NE 11 17 6 9 1015.8 1015.8 0.0
23/08:00pm 22.1 21.4 14.2 61 4.6 NE 11 15 6 8 1015.6 1015.6 0.0
23/07:30pm 22.4 20.3 13.7 58 5.0 NE 17 28 9 15 1015.2 1015.2 0.0
23/07:00pm 22.9 21.3 13.9 57 5.2 NE 15 24 8 13 1015.1 1015.1 0.0
23/06:30pm 23.3 20.8 15.1 60 4.9 ENE 22 32 12 17 1014.3 1014.3 0.0
23/06:00pm 23.9 21.1 14.3 55 5.7 ENE 22 33 12 18 1013.9 1013.9 0.0
23/05:30pm 24.5 21.3 14.3 53 6.0 ENE 24 35 13 19 1013.8 1013.8 0.0
23/05:00pm 25.2 22.4 14.3 50 6.5 NE 22 30 12 16 1014.1 1014.1 0.0
23/04:30pm 25.4 22.1 13.9 49 6.8 ENE 24 33 13 18 1013.7 1013.7 0.0
23/04:00pm 25.8 22.5 14.0 48 7.0 ENE 24 33 13 18 1013.6 1013.6 0.0
23/03:30pm 26.0 23.5 14.1 47 7.1 NE 20 32 11 17 1013.9 1013.9 0.0
23/03:00pm 26.5 23.9 14.9 49 7.0 ENE 22 32 12 17 1014.2 1014.2 0.0
23/02:30pm 26.0 23.5 14.1 47 7.1 NE 20 28 11 15 1014.5 1014.5 0.0
23/02:00pm 26.4 23.2 14.2 47 7.3 ENE 24 33 13 18 1014.8 1014.8 0.0
23/01:30pm 26.0 22.3 13.8 47 7.2 ENE 26 35 14 19 1015.2 1015.2 0.0
23/01:00pm 26.3 23.8 14.1 47 7.2 ENE 20 32 11 17 1015.6 1015.6 0.0
23/12:30pm 25.7 23.3 13.9 48 7.0 ENE 19 39 10 21 1016.0 1016.0 0.0
23/12:00pm 25.1 22.4 11.6 42 7.6 NE 17 28 9 15 1016.5 1016.5 0.0
23/11:30am 26.5 24.9 12.9 43 7.9 NNE 13 22 7 12 1016.8 1016.8 0.0
23/11:00am 24.9 23.9 12.2 45 7.3 NNW 9 17 5 9 1017.1 1017.1 0.0
23/10:30am 24.7 23.9 13.0 48 6.8 NNW 9 15 5 8 1017.5 1017.5 0.0
23/10:00am 23.7 22.8 13.6 53 5.9 NNW 11 19 6 10 1017.4 1017.4 0.0
23/09:30am 23.2 22.2 13.4 54 5.7 NW 11 17 6 9 1017.7 1017.7 0.0
23/09:00am 22.1 22.0 15.0 64 4.2 W 9 17 5 9 1018.0 1018.0 0.0
23/08:30am 21.1 21.6 15.0 68 3.6 NNW 6 9 3 5 1018.0 1018.0 0.0
23/08:00am 20.6 22.2 14.9 70 3.3 CALM 0 6 0 3 1018.1 1018.1 0.0
23/07:30am 18.4 19.8 14.5 78 2.3 CALM 0 0 0 0 1017.9 1017.9 0.0
23/07:00am 17.8 19.5 15.1 84 1.6 CALM 0 0 0 0 1017.8 1017.8 0.0
23/06:30am 15.9 17.3 14.3 90 0.9 CALM 0 0 0 0 1017.6 1017.6 0.0
23/06:00am 15.0 16.1 13.4 90 0.9 CALM 0 0 0 0 1017.4 1017.4 0.0
23/05:30am 15.1 15.2 13.8 92 0.7 ENE 6 6 3 3 1017.1 1017.1 0.0
23/05:00am 14.6 15.6 13.3 92 0.7 CALM 0 0 0 0 1016.8 1016.8 0.0
23/04:30am 15.1 16.1 13.3 89 1.0 CALM 0 0 0 0 1016.7 1016.7 0.0
23/04:00am 15.5 16.7 13.7 89 1.0 CALM 0 0 0 0 1016.6 1016.6 0.0
23/03:30am 15.7 17.0 14.1 90 0.9 CALM 0 6 0 3 1016.7 1016.7 0.0
23/03:00am 15.8 17.2 14.3 91 0.9 CALM 0 0 0 0 1017.0 1017.0 0.0
23/02:30am 15.3 16.6 14.0 92 0.7 CALM 0 0 0 0 1017.2 1017.2 0.0
23/02:00am 15.1 16.2 13.5 90 0.9 CALM 0 0 0 0 1017.5 1017.5 0.0
23/01:30am 16.0 17.4 14.4 90 0.9 CALM 0 0 0 0 1017.6 1017.6 0.0
23/01:00am 15.7 17.0 14.1 90 0.9 CALM 0 0 0 0 1017.9 1017.9 0.0
23/12:30am 16.4 18.0 14.8 90 0.9 CALM 0 0 0 0 1018.1 1018.1 0.0
23/12:00am 15.5 16.7 13.9 90 0.9 CALM 0 0 0 0 1018.4 1018.4 0.0
 
Date/Time
EDT
Temp
°C
App
Temp
°C
Dew
Point
°C
Rel
Hum
%
Delta-T
°C
Wind Press
QNH
hPa
Press
MSL
hPa
Rain since
9am
mm
Dir  Spd
km/h
Gust
km/h
Spd
kts
Gust
kts
22/11:30pm 15.8 16.9 13.6 87 1.2 CALM 0 0 0 0 1018.5 1018.5 0.0
22/11:00pm 16.4 17.5 13.5 83 1.6 CALM 0 0 0 0 1018.6 1018.6 0.0
22/10:30pm 17.2 18.3 13.5 79 2.1 CALM 0 0 0 0 1018.9 1018.9 0.0
22/10:00pm 17.5 18.5 13.2 76 2.4 CALM 0 0 0 0 1018.9 1018.9 0.0
22/09:30pm 19.4 19.6 14.2 72 3.0 ENE 6 7 3 4 1019.0 1019.0 0.0
22/09:00pm 19.8 19.5 14.4 71 3.1 NE 9 13 5 7 1018.9 1018.9 0.0
22/08:30pm 20.1 18.9 14.0 68 3.5 ENE 13 19 7 10 1018.7 1018.7 0.0
22/08:00pm 20.3 18.2 13.7 66 3.8 ENE 17 22 9 12 1018.4 1018.4 0.0
22/07:30pm 20.6 19.3 13.8 65 3.9 ENE 13 22 7 12 1018.2 1018.2 0.0
22/07:00pm 21.4 18.3 11.7 54 5.4 NE 19 28 10 15 1018.0 1018.0 0.0
22/06:30pm 21.9 19.0 12.2 54 5.5 NE 19 28 10 15 1017.8 1017.8 0.0
22/06:00pm 22.5 19.3 11.9 51 6.0 E 20 30 11 16 1017.5 1017.5 0.0
22/05:30pm 22.1 18.8 12.9 56 5.3 E 22 32 12 17 1017.5 1017.5 0.0
22/05:00pm 23.1 20.3 13.3 54 5.7 ENE 20 28 11 15 1017.6 1017.6 0.0
22/04:30pm 23.3 20.8 14.0 56 5.4 E 20 28 11 15 1017.7 1017.7 0.0
22/04:00pm 23.8 21.0 13.1 51 6.2 ENE 20 28 11 15 1017.8 1017.8 0.0
22/03:30pm 23.6 20.7 15.1 59 5.1 ESE 24 39 13 21 1018.1 1018.1 0.0
22/03:00pm 22.9 20.3 13.9 57 5.2 E 20 28 11 15 1018.3 1018.3 0.0
22/02:30pm 22.8 19.7 13.3 55 5.5 E 22 30 12 16 1018.6 1018.6 0.0
22/02:00pm 22.8 19.7 13.3 55 5.5 E 22 30 12 16 1019.0 1019.0 0.0
22/01:30pm 22.4 21.9 15.0 63 4.4 SSE 11 17 6 9 1019.4 1019.4 0.0
22/01:00pm 20.4 20.9 15.6 74 2.8 W 7 9 4 5 1019.9 1019.9 0.0
22/12:30pm 20.0 18.8 15.0 73 2.9 NNW 15 19 8 10 1020.2 1020.2 0.0
22/12:00pm 21.9 20.7 14.0 61 4.6 SE 13 17 7 9 1020.3 1020.3 0.0
22/11:30am 21.1 20.1 13.5 62 4.4 SSE 11 19 6 10 1020.6 1020.6 0.0
22/11:00am 24.4 23.5 14.8 55 5.7 SSE 13 19 7 10 1020.9 1020.9 0.0
22/10:30am 20.1 18.8 14.7 71 3.2 SE 15 20 8 11 1021.1 1021.1 0.0
22/10:00am 20.0 19.2 15.2 74 2.8 SSE 13 17 7 9 1021.2 1021.2 0.0
22/09:30am 19.1 19.0 16.1 83 1.8 SE 11 13 6 7 1021.3 1021.3 0.0
22/09:00am 18.4 19.6 16.0 86 1.4 SSE 4 9 2 5 1021.5 1021.5 0.0
22/08:30am 18.0 18.8 15.8 87 1.3 SSE 6 7 3 4 1021.5 1021.5 0.0
22/08:00am 17.4 17.9 15.6 89 1.1 W 7 9 4 5 1021.4 1021.4 0.0
22/07:30am 16.8 17.3 15.0 89 1.0 NW 6 7 3 4 1021.2 1021.2 0.0
22/07:00am 16.8 17.2 14.8 88 1.1 N 6 7 3 4 1020.9 1020.9 0.0
22/06:30am 16.7 16.9 14.2 85 1.4 N 6 9 3 5 1020.9 1020.9 0.0
22/06:00am 16.2 15.8 14.2 88 1.1 NNW 9 15 5 8 1020.8 1020.8 0.0
22/05:30am 16.0 17.2 13.8 87 1.2 CALM 0 0 0 0 1020.6 1020.6 0.0
22/05:00am 15.9 17.1 13.7 87 1.2 CALM 0 0 0 0 1020.4 1020.4 0.0
22/04:30am 15.8 16.9 13.6 87 1.2 CALM 0 0 0 0 1020.4 1020.4 0.0
22/04:00am 15.8 16.9 13.5 86 1.3 CALM 0 6 0 3 1020.3 1020.3 0.0
22/03:30am 16.1 17.2 13.6 85 1.4 CALM 0 0 0 0 1020.4 1020.4 0.0
22/03:00am 16.1 17.2 13.6 85 1.4 CALM 0 0 0 0 1020.6 1020.6 0.0
22/02:30am 16.1 17.0 13.0 82 1.7 CALM 0 0 0 0 1020.8 1020.8 0.0
22/02:00am 16.3 16.5 13.2 82 1.7 S 4 6 2 3 1021.0 1021.0 0.0
22/01:30am 17.2 17.2 13.5 79 2.1 S 6 7 3 4 1021.3 1021.3 0.0
22/01:00am 17.0 16.3 13.3 79 2.1 S 9 11 5 6 1021.6 1021.6 0.0
22/12:30am 17.0 16.9 13.3 79 2.1 S 6 9 3 5 1021.9 1021.9 0.0
22/12:00am 16.9 17.9 13.2 79 2.1 CALM 0 0 0 0 1022.3 1022.3 0.0
 
Date/Time
EDT
Temp
°C
App
Temp
°C
Dew
Point
°C
Rel
Hum
%
Delta-T
°C
Wind Press
QNH
hPa
Press
MSL
hPa
Rain since
9am
mm
Dir  Spd
km/h
Gust
km/h
Spd
kts
Gust
kts
21/11:30pm 16.4 15.9 12.0 75 2.4 SSE 6 7 3 4 1022.5 1022.5 0.0
21/11:00pm 18.7 18.3 12.9 69 3.2 ESE 7 9 4 5 1022.6 1022.6 0.0
21/10:30pm 18.9 18.5 12.9 68 3.4 ESE 7 11 4 6 1022.8 1022.8 0.0
21/10:00pm 19.4 18.6 12.9 66 3.7 ESE 9 11 5 6 1023.1 1023.1 0.0
21/09:30pm 19.5 17.9 12.8 65 3.8 E 13 15 7 8 1023.1 1023.1 0.0
21/09:00pm 19.5 17.9 12.8 65 3.8 E 13 19 7 10 1023.0 1023.0 0.0
21/08:30pm 19.5 17.4 12.5 64 3.9 E 15 19 8 10 1022.9 1022.9 0.0
21/08:00pm 19.8 17.3 12.3 62 4.2 E 17 24 9 13 1022.7 1022.7 0.0
21/07:30pm 20.1 17.5 12.1 60 4.5 E 17 22 9 12 1022.5 1022.5 0.0
21/07:00pm 20.7 17.5 11.9 57 4.9 ENE 20 35 11 19 1022.2 1022.2 0.0
21/06:30pm 20.8 16.8 11.7 56 5.1 E 24 33 13 18 1022.0 1022.0 0.0
21/06:00pm 21.7 18.1 11.7 53 5.6 E 22 30 12 16 1021.9 1021.9 0.0
21/05:30pm 21.6 17.9 11.6 53 5.6 E 22 32 12 17 1021.9 1021.9 0.0
21/05:00pm 21.9 17.8 11.6 52 5.7 E 24 39 13 21 1021.9 1021.9 0.0
21/04:30pm 22.4 18.3 11.5 50 6.1 ESE 24 33 13 18 1021.8 1021.8 0.0
21/04:00pm 23.7 19.8 12.0 48 6.6 ESE 24 37 13 20 1022.0 1022.0 0.0
21/03:30pm 23.8 20.3 12.1 48 6.6 E 22 35 12 19 1022.2 1022.2 0.0
21/03:00pm 23.1 19.4 11.5 48 6.5 ESE 22 33 12 18 1022.5 1022.5 0.0
21/02:30pm 23.5 20.2 11.5 47 6.7 E 20 32 11 17 1022.9 1022.9 0.0
21/02:00pm 23.7 20.4 11.7 47 6.7 E 20 33 11 18 1023.4 1023.4 0.0
21/01:30pm 23.2 19.1 11.6 48 6.5 ESE 24 33 13 18 1023.7 1023.7 0.0
21/01:00pm 22.7 19.4 10.8 47 6.5 E 19 32 10 17 1023.9 1023.9 0.0
21/12:30pm 22.7 19.2 10.8 47 6.6 SE 20 35 11 19 1024.3 1024.3 0.0
21/12:00pm 22.2 18.6 10.7 48 6.3 SE 20 33 11 18 1024.5 1024.5 0.0
21/11:30am 22.9 20.1 10.0 44 7.0 ENE 15 24 8 13 1024.4 1024.4 0.0
21/11:00am 22.0 19.6 10.2 47 6.4 E 13 22 7 12 1024.8 1024.8 0.0
21/10:30am 21.4 19.9 9.3 46 6.5 NE 7 15 4 8 1024.8 1024.8 0.0
21/10:00am 21.0 18.7 8.9 46 6.4 ENE 11 20 6 11 1024.9 1024.9 0.0
21/09:30am 20.9 19.2 9.8 49 6.0 ESE 9 15 5 8 1024.9 1024.9 0.0

Other Formats:

Comma delimited format used in spreadsheet applications
http://www.bom.gov.au/fwo/IDN60801/IDN60801.94765.axf

JavaScript Object Notation format (JSON) in row-major order
http://www.bom.gov.au/fwo/IDN60801/IDN60801.94765.json